Strona główna
METAR-TAF:

METAR-TAF

Lotnisko :

Port lotniczy Teesside

Durham, Anglia

Szerokość geograficzna: 54-31N, Długość geograficzna: 001-25W, wysokość: 37 m

Aktualna obserwacja pogody

Raport powstał 17 minut temu, godzina 21:20 UTC
Wiatr 5 kt od zachodnio-południowy zachód
Temperatura 4°C
Wilgotność 93%
Ciśnienie 1025 hPa
Widzialność 10 km lub więcej
Mało chmury na wysokości 2000 ft

METAR: EGNV 232120Z 25005KT 9999 FEW020 04/03 Q1025

czas: 21:37 (21:37 UTC)

Prognoza

Raport powstał 4 godziny i 38 minut temu, godzina 16:59 UTC
Prognoza ważna od 23 godzina 18 UTC do 23 godzina 22 UTC
Wiatr 5 kt od południowo-południowy zachód
Widzialność 10 km lub więcej
Rozproszone chmury na wysokości 2000 ft
Prawdopodobieństwo 30% :
Przejściowo
od 23 godzina 18 UTC do 23 godzina 22 UTC
Widzialność: 7000 m

TAF: EGNV 231659Z 2318/2322 21005KT 9999 SCT020 PROB30 TEMPO 2318/2322 7000

Obserwacja i prognoza pogody dla ponad 4000 lotnisk (raport METAR i TAF).

Dostępne stacje oznaczono żółtymi i czerwonymi punktami na mapie.

Najedź kursorem aby zobaczyć nazwę stacji.

Kliknij aby zobaczyć obserwacje i prognozy pogody.

Aby zmienić mapę: kliknij na zielony przycisk z czarnym krzyżykiem, aby powiększyć; na zielony przycisk z myślnikiem, aby pomniejszyć; na zielone strzałki, aby przejść do map sąsiednich.


METAR-TAF: